sensor_id;sensor_type;location;lat;lon;timestamp;P1;durP1;ratioP1;P2;durP2;ratioP2
25915;SDS011;13719;48.188;11.618;2023-05-24T00:01:03;0.65;;;0.40;;
25915;SDS011;13719;48.188;11.618;2023-05-24T00:03:32;1.13;;;0.60;;
25915;SDS011;13719;48.188;11.618;2023-05-24T00:06:05;3.30;;;0.73;;
25915;SDS011;13719;48.188;11.618;2023-05-24T00:08:34;1.92;;;0.68;;
25915;SDS011;13719;48.188;11.618;2023-05-24T00:11:03;1.25;;;0.80;;
25915;SDS011;13719;48.188;11.618;2023-05-24T00:13:31;1.08;;;0.50;;
25915;SDS011;13719;48.188;11.618;2023-05-24T00:15:59;0.70;;;0.70;;
25915;SDS011;13719;48.188;11.618;2023-05-24T00:18:28;1.52;;;0.60;;
25915;SDS011;13719;48.188;11.618;2023-05-24T00:20:57;1.52;;;0.70;;
25915;SDS011;13719;48.188;11.618;2023-05-24T00:23:25;0.40;;;0.40;;
25915;SDS011;13719;48.188;11.618;2023-05-24T00:25:55;1.13;;;0.50;;
25915;SDS011;13719;48.188;11.618;2023-05-24T00:28:23;1.42;;;0.80;;
25915;SDS011;13719;48.188;11.618;2023-05-24T00:30:52;2.20;;;0.93;;
25915;SDS011;13719;48.188;11.618;2023-05-24T00:33:20;1.80;;;0.90;;
25915;SDS011;13719;48.188;11.618;2023-05-24T00:35:49;1.65;;;1.05;;
25915;SDS011;13719;48.188;11.618;2023-05-24T00:38:21;1.70;;;1.02;;
25915;SDS011;13719;48.188;11.618;2023-05-24T00:40:50;2.42;;;1.13;;
25915;SDS011;13719;48.188;11.618;2023-05-24T00:43:19;1.38;;;0.60;;
25915;SDS011;13719;48.188;11.618;2023-05-24T00:45:48;0.82;;;0.70;;
25915;SDS011;13719;48.188;11.618;2023-05-24T00:48:21;0.60;;;0.47;;
25915;SDS011;13719;48.188;11.618;2023-05-24T00:50:54;0.40;;;0.40;;
25915;SDS011;13719;48.188;11.618;2023-05-24T00:53:22;0.75;;;0.60;;
25915;SDS011;13719;48.188;11.618;2023-05-24T00:55:51;1.48;;;0.80;;
25915;SDS011;13719;48.188;11.618;2023-05-24T00:58:20;2.60;;;0.75;;
25915;SDS011;13719;48.188;11.618;2023-05-24T01:00:52;0.68;;;0.68;;
25915;SDS011;13719;48.188;11.618;2023-05-24T01:03:24;1.08;;;0.80;;
25915;SDS011;13719;48.188;11.618;2023-05-24T01:05:54;1.38;;;0.60;;
25915;SDS011;13719;48.188;11.618;2023-05-24T01:08:28;1.02;;;0.55;;
25915;SDS011;13719;48.188;11.618;2023-05-24T01:11:05;1.05;;;0.70;;
25915;SDS011;13719;48.188;11.618;2023-05-24T01:13:37;2.08;;;0.70;;
25915;SDS011;13719;48.188;11.618;2023-05-24T01:16:10;1.17;;;0.82;;
25915;SDS011;13719;48.188;11.618;2023-05-24T01:18:40;1.17;;;0.65;;
25915;SDS011;13719;48.188;11.618;2023-05-24T01:21:14;0.63;;;0.55;;
25915;SDS011;13719;48.188;11.618;2023-05-24T01:23:45;0.77;;;0.50;;
25915;SDS011;13719;48.188;11.618;2023-05-24T01:26:19;2.78;;;1.30;;
25915;SDS011;13719;48.188;11.618;2023-05-24T01:28:49;2.80;;;1.17;;
25915;SDS011;13719;48.188;11.618;2023-05-24T01:31:18;1.13;;;0.60;;
25915;SDS011;13719;48.188;11.618;2023-05-24T01:33:46;1.58;;;0.70;;
25915;SDS011;13719;48.188;11.618;2023-05-24T01:36:15;2.55;;;0.60;;
25915;SDS011;13719;48.188;11.618;2023-05-24T01:38:43;2.70;;;1.17;;
25915;SDS011;13719;48.188;11.618;2023-05-24T01:41:14;1.42;;;1.20;;
25915;SDS011;13719;48.188;11.618;2023-05-24T01:43:47;1.52;;;0.80;;
25915;SDS011;13719;48.188;11.618;2023-05-24T01:46:24;3.00;;;1.27;;
25915;SDS011;13719;48.188;11.618;2023-05-24T01:48:58;1.80;;;0.98;;
25915;SDS011;13719;48.188;11.618;2023-05-24T01:51:31;6.18;;;1.17;;
25915;SDS011;13719;48.188;11.618;2023-05-24T01:54:01;2.03;;;1.25;;
25915;SDS011;13719;48.188;11.618;2023-05-24T01:56:31;1.75;;;0.70;;
25915;SDS011;13719;48.188;11.618;2023-05-24T01:59:00;2.30;;;0.70;;
25915;SDS011;13719;48.188;11.618;2023-05-24T02:01:30;4.35;;;0.85;;
25915;SDS011;13719;48.188;11.618;2023-05-24T02:03:59;2.88;;;1.48;;
25915;SDS011;13719;48.188;11.618;2023-05-24T02:06:28;1.08;;;0.50;;
25915;SDS011;13719;48.188;11.618;2023-05-24T02:08:56;2.10;;;1.00;;
25915;SDS011;13719;48.188;11.618;2023-05-24T02:11:24;2.65;;;0.95;;
25915;SDS011;13719;48.188;11.618;2023-05-24T02:13:53;3.50;;;0.90;;
25915;SDS011;13719;48.188;11.618;2023-05-24T02:16:21;1.70;;;1.00;;
25915;SDS011;13719;48.188;11.618;2023-05-24T02:18:53;2.78;;;1.00;;
25915;SDS011;13719;48.188;11.618;2023-05-24T02:21:22;1.05;;;0.60;;
25915;SDS011;13719;48.188;11.618;2023-05-24T02:23:51;1.02;;;0.70;;
25915;SDS011;13719;48.188;11.618;2023-05-24T02:26:19;1.30;;;1.15;;
25915;SDS011;13719;48.188;11.618;2023-05-24T02:28:48;1.92;;;0.93;;
25915;SDS011;13719;48.188;11.618;2023-05-24T02:31:16;2.65;;;1.00;;
25915;SDS011;13719;48.188;11.618;2023-05-24T02:33:45;0.88;;;0.43;;
25915;SDS011;13719;48.188;11.618;2023-05-24T02:36:15;0.85;;;0.60;;
25915;SDS011;13719;48.188;11.618;2023-05-24T02:38:43;1.33;;;0.80;;
25915;SDS011;13719;48.188;11.618;2023-05-24T02:41:11;2.65;;;1.00;;
25915;SDS011;13719;48.188;11.618;2023-05-24T02:43:43;1.90;;;0.93;;
25915;SDS011;13719;48.188;11.618;2023-05-24T02:46:11;1.15;;;0.80;;
25915;SDS011;13719;48.188;11.618;2023-05-24T02:48:40;3.28;;;0.90;;
25915;SDS011;13719;48.188;11.618;2023-05-24T02:51:08;2.30;;;1.10;;
25915;SDS011;13719;48.188;11.618;2023-05-24T02:53:38;1.10;;;1.00;;
25915;SDS011;13719;48.188;11.618;2023-05-24T02:56:08;2.03;;;1.23;;
25915;SDS011;13719;48.188;11.618;2023-05-24T02:58:38;2.28;;;1.08;;
25915;SDS011;13719;48.188;11.618;2023-05-24T03:01:07;2.97;;;0.88;;
25915;SDS011;13719;48.188;11.618;2023-05-24T03:03:35;2.45;;;0.90;;
25915;SDS011;13719;48.188;11.618;2023-05-24T03:06:05;1.98;;;0.88;;
25915;SDS011;13719;48.188;11.618;2023-05-24T03:08:33;0.82;;;0.60;;
25915;SDS011;13719;48.188;11.618;2023-05-24T03:11:04;2.95;;;0.88;;
25915;SDS011;13719;48.188;11.618;2023-05-24T03:13:33;0.90;;;0.63;;
25915;SDS011;13719;48.188;11.618;2023-05-24T03:16:01;1.17;;;0.80;;
25915;SDS011;13719;48.188;11.618;2023-05-24T03:18:29;4.35;;;1.58;;
25915;SDS011;13719;48.188;11.618;2023-05-24T03:20:58;1.73;;;1.05;;
25915;SDS011;13719;48.188;11.618;2023-05-24T03:23:26;1.52;;;1.25;;
25915;SDS011;13719;48.188;11.618;2023-05-24T03:25:54;1.30;;;0.98;;
25915;SDS011;13719;48.188;11.618;2023-05-24T03:28:24;1.42;;;0.82;;
25915;SDS011;13719;48.188;11.618;2023-05-24T03:30:53;4.05;;;1.00;;
25915;SDS011;13719;48.188;11.618;2023-05-24T03:33:22;1.10;;;1.00;;
25915;SDS011;13719;48.188;11.618;2023-05-24T03:35:50;2.42;;;1.30;;
25915;SDS011;13719;48.188;11.618;2023-05-24T03:38:18;3.97;;;1.52;;
25915;SDS011;13719;48.188;11.618;2023-05-24T03:40:47;2.63;;;1.10;;
25915;SDS011;13719;48.188;11.618;2023-05-24T03:43:15;4.00;;;1.40;;
25915;SDS011;13719;48.188;11.618;2023-05-24T03:45:45;1.40;;;0.88;;
25915;SDS011;13719;48.188;11.618;2023-05-24T03:48:13;2.22;;;1.08;;
25915;SDS011;13719;48.188;11.618;2023-05-24T03:50:42;1.48;;;0.70;;
25915;SDS011;13719;48.188;11.618;2023-05-24T03:53:10;2.38;;;1.17;;
25915;SDS011;13719;48.188;11.618;2023-05-24T03:55:39;1.95;;;0.90;;
25915;SDS011;13719;48.188;11.618;2023-05-24T03:58:07;3.47;;;1.05;;
25915;SDS011;13719;48.188;11.618;2023-05-24T04:00:35;2.38;;;0.60;;
25915;SDS011;13719;48.188;11.618;2023-05-24T04:03:05;2.53;;;1.30;;
25915;SDS011;13719;48.188;11.618;2023-05-24T04:05:34;2.75;;;1.13;;
25915;SDS011;13719;48.188;11.618;2023-05-24T04:08:02;1.88;;;0.98;;
25915;SDS011;13719;48.188;11.618;2023-05-24T04:10:31;1.77;;;0.80;;
25915;SDS011;13719;48.188;11.618;2023-05-24T04:13:00;2.13;;;1.30;;
25915;SDS011;13719;48.188;11.618;2023-05-24T04:15:28;2.28;;;0.93;;
25915;SDS011;13719;48.188;11.618;2023-05-24T04:17:57;3.10;;;1.45;;
25915;SDS011;13719;48.188;11.618;2023-05-24T04:20:27;2.80;;;0.95;;
25915;SDS011;13719;48.188;11.618;2023-05-24T04:22:56;1.85;;;0.73;;
25915;SDS011;13719;48.188;11.618;2023-05-24T04:25:24;1.33;;;0.77;;
25915;SDS011;13719;48.188;11.618;2023-05-24T04:27:53;1.63;;;0.65;;
25915;SDS011;13719;48.188;11.618;2023-05-24T04:30:22;1.85;;;1.05;;
25915;SDS011;13719;48.188;11.618;2023-05-24T04:32:51;1.80;;;1.20;;
25915;SDS011;13719;48.188;11.618;2023-05-24T04:35:19;3.38;;;1.02;;
25915;SDS011;13719;48.188;11.618;2023-05-24T04:37:49;1.80;;;0.75;;
25915;SDS011;13719;48.188;11.618;2023-05-24T04:40:17;0.75;;;0.60;;
25915;SDS011;13719;48.188;11.618;2023-05-24T04:42:49;1.25;;;0.77;;
25915;SDS011;13719;48.188;11.618;2023-05-24T04:45:17;5.18;;;0.82;;
25915;SDS011;13719;48.188;11.618;2023-05-24T04:47:46;1.27;;;0.82;;
25915;SDS011;13719;48.188;11.618;2023-05-24T04:50:14;1.88;;;0.98;;
25915;SDS011;13719;48.188;11.618;2023-05-24T04:52:43;2.33;;;0.80;;
25915;SDS011;13719;48.188;11.618;2023-05-24T04:55:12;3.22;;;0.90;;
25915;SDS011;13719;48.188;11.618;2023-05-24T04:57:41;2.28;;;0.93;;
25915;SDS011;13719;48.188;11.618;2023-05-24T05:00:09;3.13;;;1.05;;
25915;SDS011;13719;48.188;11.618;2023-05-24T05:02:38;1.48;;;0.63;;
25915;SDS011;13719;48.188;11.618;2023-05-24T05:05:07;3.67;;;1.10;;
25915;SDS011;13719;48.188;11.618;2023-05-24T05:07:35;1.92;;;0.82;;
25915;SDS011;13719;48.188;11.618;2023-05-24T05:10:07;4.03;;;0.90;;
25915;SDS011;13719;48.188;11.618;2023-05-24T05:12:37;5.97;;;1.13;;
25915;SDS011;13719;48.188;11.618;2023-05-24T05:15:06;2.45;;;0.88;;
25915;SDS011;13719;48.188;11.618;2023-05-24T05:17:34;0.75;;;0.75;;
25915;SDS011;13719;48.188;11.618;2023-05-24T05:20:03;3.38;;;1.00;;
25915;SDS011;13719;48.188;11.618;2023-05-24T05:22:32;1.73;;;0.98;;
25915;SDS011;13719;48.188;11.618;2023-05-24T05:25:03;2.42;;;1.30;;
25915;SDS011;13719;48.188;11.618;2023-05-24T05:27:32;2.67;;;1.00;;
25915;SDS011;13719;48.188;11.618;2023-05-24T05:30:02;2.03;;;0.90;;
25915;SDS011;13719;48.188;11.618;2023-05-24T05:32:30;1.77;;;0.82;;
25915;SDS011;13719;48.188;11.618;2023-05-24T05:34:59;6.63;;;1.83;;
25915;SDS011;13719;48.188;11.618;2023-05-24T05:37:27;5.72;;;1.20;;
25915;SDS011;13719;48.188;11.618;2023-05-24T05:39:56;2.55;;;1.45;;
25915;SDS011;13719;48.188;11.618;2023-05-24T05:42:25;2.63;;;0.77;;
25915;SDS011;13719;48.188;11.618;2023-05-24T05:44:53;3.33;;;1.90;;
25915;SDS011;13719;48.188;11.618;2023-05-24T05:47:23;1.88;;;1.05;;
25915;SDS011;13719;48.188;11.618;2023-05-24T05:49:52;2.97;;;1.63;;
25915;SDS011;13719;48.188;11.618;2023-05-24T05:52:20;1.65;;;0.95;;
25915;SDS011;13719;48.188;11.618;2023-05-24T05:54:49;5.00;;;1.33;;
25915;SDS011;13719;48.188;11.618;2023-05-24T05:57:17;2.30;;;1.17;;
25915;SDS011;13719;48.188;11.618;2023-05-24T05:59:49;2.65;;;1.33;;
25915;SDS011;13719;48.188;11.618;2023-05-24T06:02:18;4.53;;;2.03;;
25915;SDS011;13719;48.188;11.618;2023-05-24T06:04:49;5.20;;;2.00;;
25915;SDS011;13719;48.188;11.618;2023-05-24T06:07:18;4.53;;;1.45;;
25915;SDS011;13719;48.188;11.618;2023-05-24T06:09:46;2.42;;;1.05;;
25915;SDS011;13719;48.188;11.618;2023-05-24T06:12:15;2.97;;;1.13;;
25915;SDS011;13719;48.188;11.618;2023-05-24T06:14:43;2.90;;;1.77;;
25915;SDS011;13719;48.188;11.618;2023-05-24T06:17:13;3.00;;;1.80;;
25915;SDS011;13719;48.188;11.618;2023-05-24T06:19:42;5.30;;;1.95;;
25915;SDS011;13719;48.188;11.618;2023-05-24T06:22:12;1.77;;;1.15;;
25915;SDS011;13719;48.188;11.618;2023-05-24T06:24:40;2.25;;;1.02;;
25915;SDS011;13719;48.188;11.618;2023-05-24T06:27:09;2.85;;;1.63;;
25915;SDS011;13719;48.188;11.618;2023-05-24T06:29:37;2.47;;;1.30;;
25915;SDS011;13719;48.188;11.618;2023-05-24T06:32:06;1.98;;;1.00;;
25915;SDS011;13719;48.188;11.618;2023-05-24T06:34:34;2.95;;;1.48;;
25915;SDS011;13719;48.188;11.618;2023-05-24T06:37:03;10.68;;;1.40;;
25915;SDS011;13719;48.188;11.618;2023-05-24T06:39:36;3.33;;;0.98;;
25915;SDS011;13719;48.188;11.618;2023-05-24T06:42:05;2.53;;;1.02;;
25915;SDS011;13719;48.188;11.618;2023-05-24T06:44:33;2.38;;;0.90;;
25915;SDS011;13719;48.188;11.618;2023-05-24T06:47:02;2.05;;;1.17;;
25915;SDS011;13719;48.188;11.618;2023-05-24T06:49:31;2.70;;;1.50;;
25915;SDS011;13719;48.188;11.618;2023-05-24T06:52:00;1.75;;;0.88;;
25915;SDS011;13719;48.188;11.618;2023-05-24T06:54:28;1.48;;;0.90;;
25915;SDS011;13719;48.188;11.618;2023-05-24T06:56:58;0.73;;;0.73;;
25915;SDS011;13719;48.188;11.618;2023-05-24T06:59:26;2.88;;;1.45;;
25915;SDS011;13719;48.188;11.618;2023-05-24T07:01:55;1.52;;;0.98;;
25915;SDS011;13719;48.188;11.618;2023-05-24T07:04:28;1.92;;;1.23;;
25915;SDS011;13719;48.188;11.618;2023-05-24T07:06:56;2.75;;;1.10;;
25915;SDS011;13719;48.188;11.618;2023-05-24T07:09:25;2.60;;;1.23;;
25915;SDS011;13719;48.188;11.618;2023-05-24T07:11:53;3.88;;;1.42;;
25915;SDS011;13719;48.188;11.618;2023-05-24T07:14:23;4.18;;;1.80;;
25915;SDS011;13719;48.188;11.618;2023-05-24T07:16:52;2.25;;;1.40;;
25915;SDS011;13719;48.188;11.618;2023-05-24T07:19:22;2.08;;;0.80;;
25915;SDS011;13719;48.188;11.618;2023-05-24T07:21:54;2.13;;;1.02;;
25915;SDS011;13719;48.188;11.618;2023-05-24T07:24:23;1.98;;;1.27;;
25915;SDS011;13719;48.188;11.618;2023-05-24T07:26:51;3.33;;;1.40;;
25915;SDS011;13719;48.188;11.618;2023-05-24T07:29:23;1.30;;;0.95;;
25915;SDS011;13719;48.188;11.618;2023-05-24T07:31:53;1.85;;;1.13;;
25915;SDS011;13719;48.188;11.618;2023-05-24T07:34:23;4.00;;;0.85;;
25915;SDS011;13719;48.188;11.618;2023-05-24T07:36:55;2.17;;;1.10;;
25915;SDS011;13719;48.188;11.618;2023-05-24T07:39:26;2.10;;;1.15;;
25915;SDS011;13719;48.188;11.618;2023-05-24T07:41:54;2.10;;;1.10;;
25915;SDS011;13719;48.188;11.618;2023-05-24T07:44:24;1.65;;;1.10;;
25915;SDS011;13719;48.188;11.618;2023-05-24T07:46:53;1.60;;;0.68;;
25915;SDS011;13719;48.188;11.618;2023-05-24T07:49:22;3.60;;;1.30;;
25915;SDS011;13719;48.188;11.618;2023-05-24T07:51:51;3.40;;;1.60;;
25915;SDS011;13719;48.188;11.618;2023-05-24T07:54:22;2.17;;;1.10;;
25915;SDS011;13719;48.188;11.618;2023-05-24T07:56:50;3.78;;;1.50;;
25915;SDS011;13719;48.188;11.618;2023-05-24T07:59:19;2.25;;;1.63;;
25915;SDS011;13719;48.188;11.618;2023-05-24T08:01:49;2.08;;;1.05;;
25915;SDS011;13719;48.188;11.618;2023-05-24T08:04:18;4.40;;;1.70;;
25915;SDS011;13719;48.188;11.618;2023-05-24T08:06:47;3.28;;;1.25;;
25915;SDS011;13719;48.188;11.618;2023-05-24T08:09:16;1.48;;;0.90;;
25915;SDS011;13719;48.188;11.618;2023-05-24T08:11:44;2.15;;;1.10;;
25915;SDS011;13719;48.188;11.618;2023-05-24T08:14:12;3.53;;;1.17;;
25915;SDS011;13719;48.188;11.618;2023-05-24T08:16:41;3.65;;;1.73;;
25915;SDS011;13719;48.188;11.618;2023-05-24T08:19:11;2.13;;;1.02;;
25915;SDS011;13719;48.188;11.618;2023-05-24T08:21:39;2.00;;;1.33;;
25915;SDS011;13719;48.188;11.618;2023-05-24T08:24:08;2.33;;;1.52;;
25915;SDS011;13719;48.188;11.618;2023-05-24T08:26:37;2.33;;;1.60;;
25915;SDS011;13719;48.188;11.618;2023-05-24T08:29:05;6.18;;;1.48;;
25915;SDS011;13719;48.188;11.618;2023-05-24T08:31:34;1.98;;;1.20;;
25915;SDS011;13719;48.188;11.618;2023-05-24T08:34:03;2.85;;;1.52;;
25915;SDS011;13719;48.188;11.618;2023-05-24T08:36:33;1.85;;;1.55;;
25915;SDS011;13719;48.188;11.618;2023-05-24T08:39:02;3.13;;;1.58;;
25915;SDS011;13719;48.188;11.618;2023-05-24T08:41:32;3.28;;;2.13;;
25915;SDS011;13719;48.188;11.618;2023-05-24T08:44:03;3.45;;;1.98;;
25915;SDS011;13719;48.188;11.618;2023-05-24T08:49:01;2.90;;;1.67;;
25915;SDS011;13719;48.188;11.618;2023-05-24T08:51:30;2.85;;;1.15;;
25915;SDS011;13719;48.188;11.618;2023-05-24T08:54:00;4.05;;;0.93;;
25915;SDS011;13719;48.188;11.618;2023-05-24T08:56:29;2.78;;;1.17;;
25915;SDS011;13719;48.188;11.618;2023-05-24T08:58:58;2.40;;;1.65;;
25915;SDS011;13719;48.188;11.618;2023-05-24T09:01:26;3.47;;;1.38;;
25915;SDS011;13719;48.188;11.618;2023-05-24T09:03:59;3.92;;;1.33;;
25915;SDS011;13719;48.188;11.618;2023-05-24T09:06:30;3.72;;;1.52;;
25915;SDS011;13719;48.188;11.618;2023-05-24T09:08:58;3.40;;;1.33;;
25915;SDS011;13719;48.188;11.618;2023-05-24T09:11:29;2.78;;;1.67;;
25915;SDS011;13719;48.188;11.618;2023-05-24T09:13:59;2.22;;;1.63;;
25915;SDS011;13719;48.188;11.618;2023-05-24T09:16:27;1.92;;;1.63;;
25915;SDS011;13719;48.188;11.618;2023-05-24T09:18:56;5.00;;;1.65;;
25915;SDS011;13719;48.188;11.618;2023-05-24T09:21:24;2.97;;;1.48;;
25915;SDS011;13719;48.188;11.618;2023-05-24T09:23:54;3.45;;;1.73;;
25915;SDS011;13719;48.188;11.618;2023-05-24T09:26:23;3.70;;;2.08;;
25915;SDS011;13719;48.188;11.618;2023-05-24T09:28:54;4.97;;;2.20;;
25915;SDS011;13719;48.188;11.618;2023-05-24T09:31:30;2.17;;;1.35;;
25915;SDS011;13719;48.188;11.618;2023-05-24T09:33:59;3.78;;;1.70;;
25915;SDS011;13719;48.188;11.618;2023-05-24T09:36:28;3.42;;;1.42;;
25915;SDS011;13719;48.188;11.618;2023-05-24T09:39:05;4.22;;;1.75;;
25915;SDS011;13719;48.188;11.618;2023-05-24T09:41:35;4.28;;;1.95;;
25915;SDS011;13719;48.188;11.618;2023-05-24T09:44:05;5.07;;;1.75;;
25915;SDS011;13719;48.188;11.618;2023-05-24T09:46:34;3.67;;;1.60;;
25915;SDS011;13719;48.188;11.618;2023-05-24T09:49:04;3.28;;;1.27;;
25915;SDS011;13719;48.188;11.618;2023-05-24T09:51:35;2.78;;;1.73;;
25915;SDS011;13719;48.188;11.618;2023-05-24T09:54:04;2.50;;;1.50;;
25915;SDS011;13719;48.188;11.618;2023-05-24T09:56:33;3.63;;;1.77;;
25915;SDS011;13719;48.188;11.618;2023-05-24T09:59:06;2.72;;;1.58;;
25915;SDS011;13719;48.188;11.618;2023-05-24T10:01:35;5.20;;;1.25;;
25915;SDS011;13719;48.188;11.618;2023-05-24T10:04:03;6.78;;;1.73;;
25915;SDS011;13719;48.188;11.618;2023-05-24T10:06:35;3.67;;;1.58;;
25915;SDS011;13719;48.188;11.618;2023-05-24T10:09:05;5.43;;;1.85;;
25915;SDS011;13719;48.188;11.618;2023-05-24T10:11:35;2.42;;;1.38;;
25915;SDS011;13719;48.188;11.618;2023-05-24T10:14:04;4.72;;;1.77;;
25915;SDS011;13719;48.188;11.618;2023-05-24T10:16:34;2.05;;;1.52;;
25915;SDS011;13719;48.188;11.618;2023-05-24T10:19:04;4.32;;;1.80;;
25915;SDS011;13719;48.188;11.618;2023-05-24T10:21:33;2.17;;;1.60;;
25915;SDS011;13719;48.188;11.618;2023-05-24T10:24:04;2.60;;;1.67;;
25915;SDS011;13719;48.188;11.618;2023-05-24T10:26:34;3.60;;;1.20;;
25915;SDS011;13719;48.188;11.618;2023-05-24T10:29:05;2.00;;;1.13;;
25915;SDS011;13719;48.188;11.618;2023-05-24T10:31:37;4.55;;;1.38;;
25915;SDS011;13719;48.188;11.618;2023-05-24T10:34:07;4.03;;;1.52;;
25915;SDS011;13719;48.188;11.618;2023-05-24T10:36:36;2.45;;;1.50;;
25915;SDS011;13719;48.188;11.618;2023-05-24T10:39:07;10.25;;;1.98;;
25915;SDS011;13719;48.188;11.618;2023-05-24T10:41:39;2.72;;;1.88;;
25915;SDS011;13719;48.188;11.618;2023-05-24T10:44:11;3.28;;;1.65;;
25915;SDS011;13719;48.188;11.618;2023-05-24T10:49:27;5.35;;;1.90;;
25915;SDS011;13719;48.188;11.618;2023-05-24T10:51:59;3.25;;;1.58;;
25915;SDS011;13719;48.188;11.618;2023-05-24T10:54:28;5.30;;;2.05;;
25915;SDS011;13719;48.188;11.618;2023-05-24T10:56:59;3.55;;;1.40;;
25915;SDS011;13719;48.188;11.618;2023-05-24T10:59:30;4.72;;;1.70;;
25915;SDS011;13719;48.188;11.618;2023-05-24T11:02:02;3.80;;;2.05;;
25915;SDS011;13719;48.188;11.618;2023-05-24T11:04:35;2.72;;;1.73;;
25915;SDS011;13719;48.188;11.618;2023-05-24T11:07:04;3.08;;;1.55;;
25915;SDS011;13719;48.188;11.618;2023-05-24T11:09:35;4.57;;;1.98;;
25915;SDS011;13719;48.188;11.618;2023-05-24T11:12:06;3.63;;;1.73;;
25915;SDS011;13719;48.188;11.618;2023-05-24T11:14:35;7.47;;;1.75;;
25915;SDS011;13719;48.188;11.618;2023-05-24T11:17:05;2.95;;;2.25;;
25915;SDS011;13719;48.188;11.618;2023-05-24T11:19:35;2.88;;;2.03;;
25915;SDS011;13719;48.188;11.618;2023-05-24T11:22:05;3.17;;;2.33;;
25915;SDS011;13719;48.188;11.618;2023-05-24T11:24:34;2.60;;;1.67;;
25915;SDS011;13719;48.188;11.618;2023-05-24T11:27:03;5.07;;;1.80;;
25915;SDS011;13719;48.188;11.618;2023-05-24T11:29:33;7.82;;;2.15;;
25915;SDS011;13719;48.188;11.618;2023-05-24T11:32:07;2.70;;;1.70;;
25915;SDS011;13719;48.188;11.618;2023-05-24T11:34:37;2.58;;;1.90;;
25915;SDS011;13719;48.188;11.618;2023-05-24T11:37:05;3.40;;;1.63;;
25915;SDS011;13719;48.188;11.618;2023-05-24T11:39:35;3.47;;;1.90;;
25915;SDS011;13719;48.188;11.618;2023-05-24T11:42:03;3.97;;;2.38;;
25915;SDS011;13719;48.188;11.618;2023-05-24T11:44:33;5.00;;;1.83;;
25915;SDS011;13719;48.188;11.618;2023-05-24T11:47:04;3.45;;;1.83;;
25915;SDS011;13719;48.188;11.618;2023-05-24T11:49:32;3.13;;;1.90;;
25915;SDS011;13719;48.188;11.618;2023-05-24T11:52:02;8.18;;;2.20;;
25915;SDS011;13719;48.188;11.618;2023-05-24T11:54:31;4.63;;;2.10;;
25915;SDS011;13719;48.188;11.618;2023-05-24T11:57:03;5.07;;;2.17;;
25915;SDS011;13719;48.188;11.618;2023-05-24T11:59:32;4.50;;;1.42;;
25915;SDS011;13719;48.188;11.618;2023-05-24T12:02:03;2.58;;;1.77;;
25915;SDS011;13719;48.188;11.618;2023-05-24T12:04:33;3.83;;;1.80;;
25915;SDS011;13719;48.188;11.618;2023-05-24T12:07:03;4.50;;;2.55;;
25915;SDS011;13719;48.188;11.618;2023-05-24T12:09:32;6.32;;;1.88;;
25915;SDS011;13719;48.188;11.618;2023-05-24T12:12:00;6.07;;;1.38;;
25915;SDS011;13719;48.188;11.618;2023-05-24T12:14:29;5.35;;;2.10;;
25915;SDS011;13719;48.188;11.618;2023-05-24T12:16:57;3.67;;;1.70;;
25915;SDS011;13719;48.188;11.618;2023-05-24T12:19:28;2.10;;;1.30;;
25915;SDS011;13719;48.188;11.618;2023-05-24T12:22:02;5.70;;;2.05;;
25915;SDS011;13719;48.188;11.618;2023-05-24T12:24:33;2.25;;;1.23;;
25915;SDS011;13719;48.188;11.618;2023-05-24T12:27:02;3.13;;;2.17;;
25915;SDS011;13719;48.188;11.618;2023-05-24T12:29:33;3.53;;;1.60;;
25915;SDS011;13719;48.188;11.618;2023-05-24T12:32:02;3.53;;;1.33;;
25915;SDS011;13719;48.188;11.618;2023-05-24T12:34:31;3.03;;;1.23;;
25915;SDS011;13719;48.188;11.618;2023-05-24T12:37:00;5.40;;;1.48;;
25915;SDS011;13719;48.188;11.618;2023-05-24T12:39:29;2.70;;;1.55;;
25915;SDS011;13719;48.188;11.618;2023-05-24T12:42:02;2.92;;;1.15;;
25915;SDS011;13719;48.188;11.618;2023-05-24T12:44:32;2.85;;;1.58;;
25915;SDS011;13719;48.188;11.618;2023-05-24T12:47:01;3.30;;;1.60;;
25915;SDS011;13719;48.188;11.618;2023-05-24T12:49:30;5.13;;;3.17;;
25915;SDS011;13719;48.188;11.618;2023-05-24T12:51:59;3.78;;;1.52;;
25915;SDS011;13719;48.188;11.618;2023-05-24T12:54:28;2.00;;;1.23;;
25915;SDS011;13719;48.188;11.618;2023-05-24T12:56:57;3.50;;;1.73;;
25915;SDS011;13719;48.188;11.618;2023-05-24T12:59:29;3.00;;;1.42;;
25915;SDS011;13719;48.188;11.618;2023-05-24T13:01:58;7.32;;;1.75;;
25915;SDS011;13719;48.188;11.618;2023-05-24T13:04:27;4.03;;;1.63;;
25915;SDS011;13719;48.188;11.618;2023-05-24T13:06:57;4.43;;;2.15;;
25915;SDS011;13719;48.188;11.618;2023-05-24T13:09:25;3.05;;;1.73;;
25915;SDS011;13719;48.188;11.618;2023-05-24T13:11:54;4.40;;;1.65;;
25915;SDS011;13719;48.188;11.618;2023-05-24T13:14:22;5.28;;;1.55;;
25915;SDS011;13719;48.188;11.618;2023-05-24T13:16:52;4.63;;;2.10;;
25915;SDS011;13719;48.188;11.618;2023-05-24T13:19:21;2.60;;;1.40;;
25915;SDS011;13719;48.188;11.618;2023-05-24T13:21:49;3.65;;;1.98;;
25915;SDS011;13719;48.188;11.618;2023-05-24T13:24:18;5.72;;;2.28;;
25915;SDS011;13719;48.188;11.618;2023-05-24T13:26:46;4.30;;;2.50;;
25915;SDS011;13719;48.188;11.618;2023-05-24T13:29:19;6.32;;;1.98;;
25915;SDS011;13719;48.188;11.618;2023-05-24T13:32:06;5.43;;;1.75;;
25915;SDS011;13719;48.188;11.618;2023-05-24T13:34:34;4.40;;;1.70;;
25915;SDS011;13719;48.188;11.618;2023-05-24T13:37:03;3.88;;;1.30;;
25915;SDS011;13719;48.188;11.618;2023-05-24T13:39:32;4.97;;;1.80;;
25915;SDS011;13719;48.188;11.618;2023-05-24T13:42:02;1.75;;;1.45;;
25915;SDS011;13719;48.188;11.618;2023-05-24T13:44:30;3.03;;;1.45;;
25915;SDS011;13719;48.188;11.618;2023-05-24T13:46:59;9.75;;;1.77;;
25915;SDS011;13719;48.188;11.618;2023-05-24T13:49:29;3.67;;;1.98;;
25915;SDS011;13719;48.188;11.618;2023-05-24T13:51:57;3.08;;;1.70;;
25915;SDS011;13719;48.188;11.618;2023-05-24T13:54:26;3.83;;;2.08;;
25915;SDS011;13719;48.188;11.618;2023-05-24T13:56:55;2.58;;;2.00;;
25915;SDS011;13719;48.188;11.618;2023-05-24T13:59:23;5.63;;;1.65;;
25915;SDS011;13719;48.188;11.618;2023-05-24T14:01:52;3.03;;;1.60;;
25915;SDS011;13719;48.188;11.618;2023-05-24T14:04:21;8.32;;;1.55;;
25915;SDS011;13719;48.188;11.618;2023-05-24T14:06:51;3.03;;;1.50;;
25915;SDS011;13719;48.188;11.618;2023-05-24T14:09:19;2.42;;;1.20;;
25915;SDS011;13719;48.188;11.618;2023-05-24T14:11:48;2.78;;;1.27;;
25915;SDS011;13719;48.188;11.618;2023-05-24T14:14:17;1.52;;;1.20;;
25915;SDS011;13719;48.188;11.618;2023-05-24T14:17:06;2.83;;;1.60;;
25915;SDS011;13719;48.188;11.618;2023-05-24T14:19:34;5.53;;;1.27;;
25915;SDS011;13719;48.188;11.618;2023-05-24T14:22:05;5.28;;;2.13;;
25915;SDS011;13719;48.188;11.618;2023-05-24T14:24:33;3.88;;;1.70;;
25915;SDS011;13719;48.188;11.618;2023-05-24T14:27:01;4.18;;;1.80;;
25915;SDS011;13719;48.188;11.618;2023-05-24T14:29:32;8.85;;;1.40;;
25915;SDS011;13719;48.188;11.618;2023-05-24T14:32:01;3.78;;;1.65;;
25915;SDS011;13719;48.188;11.618;2023-05-24T14:34:29;2.20;;;1.23;;
25915;SDS011;13719;48.188;11.618;2023-05-24T14:36:57;1.27;;;1.05;;
25915;SDS011;13719;48.188;11.618;2023-05-24T14:39:28;4.47;;;1.77;;
25915;SDS011;13719;48.188;11.618;2023-05-24T14:41:57;1.80;;;1.35;;
25915;SDS011;13719;48.188;11.618;2023-05-24T14:44:25;2.47;;;1.40;;
25915;SDS011;13719;48.188;11.618;2023-05-24T14:46:54;2.10;;;1.30;;
25915;SDS011;13719;48.188;11.618;2023-05-24T14:49:22;2.22;;;1.50;;
25915;SDS011;13719;48.188;11.618;2023-05-24T14:51:51;3.25;;;1.27;;